Burgoon, Ohio
Current Conditions -  °F | °C
As of 2:53 PM on Thursday 23 Oct 2014 (Local Time) from KTDZ Reporting Station
Clear Clear  
Wind Chill: 56°   Ceiling: Unl
Heat Index: 56°   Visibility: 10mi
Dew Point: 39°   Wind: 5mph
Humidity: 53%   Direction: 230°SW
Pressure: 30.18"   Gusts: NA
Location:  41.27°N, 83.25°W
Report Text: KTDZ 231853Z AUTO 23004KT 10SM CLR 13/04 A3018 RMK AO2 SLP221 T01330039 TSNO
Loading
Personal Weather Stations






























Interactive Weather Map
Tropical Storm Tracking
New forecast layout! Learn more

10-Day Weather Forecast

Advertisements
Track Severe Weather on mobile